Weather at Atlantic City International Airport

Public forecast

Using degrees Fahrenheit for public forecast. Weather courtesy of forecast.io.

Current aviation weather report (METAR) for Atlantic City International Airport

Retrieved 2020/09/28 18:54 UTC (46 minutes ago):

KACY 281854Z 17010KT 10SM CLR 24/19 A2992 RMK AO2 SLP132 T02440189

Aviation forecast (TAF) for Atlantic City International Airport

Retrieved 2020/09/28 18:34 UTC (1 hour ago):

TAF KACY 281729Z 2818/2918 16008KT P6SM SCT025 BKN120 FM282000 17010G18KT P6SM SCT040 FM282300 18008KT P6SM SCT040 FM291000 18006KT P6SM BKN015 FM291500 19006KT 6SM -SHRA BR BKN015